Time;durP1;ratioP1;P1;durP2;ratioP2;P2;SDS_P1;SDS_P2;PMS_P1;PMS_P2;Temp;Humidity;BMP_temperature;BMP_pressure;BME280_temperature;BME280_humidity;BME280_pressure;Samples;Min_cycle;Max_cycle;Signal;HPM_P1;HPM_P2
2022/01/11 00:02:18;;;;;;;29.00;11.05;;;;;;;1.05;57.73;100495.56;4407024;32;32951;-85
2022/01/11 00:04:46;;;;;;;22.90;10.07;;;;;;;0.60;59.58;100496.09;4408022;32;33931;-85
2022/01/11 00:07:16;;;;;;;18.48;9.50;;;;;;;0.68;59.26;100497.91;4412604;32;32966;-85
2022/01/11 00:09:45;;;;;;;25.30;9.70;;;;;;;0.96;58.49;100496.38;4393724;32;32536;-85
2022/01/11 00:12:13;;;;;;;18.55;9.00;;;;;;;0.75;58.88;100494.47;4394226;32;34137;-83
2022/01/11 00:14:40;;;;;;;19.58;8.10;;;;;;;0.99;58.06;100498.09;4405360;32;34083;-83
2022/01/11 00:17:08;;;;;;;19.65;8.27;;;;;;;0.53;59.44;100510.78;4400096;32;34460;-84
2022/01/11 00:19:36;;;;;;;15.50;7.75;;;;;;;0.87;58.53;100509.31;4408000;32;32983;-84
2022/01/11 00:22:07;;;;;;;18.10;8.55;;;;;;;0.64;58.89;100511.72;4401793;32;33895;-84
2022/01/11 00:24:36;;;;;;;18.67;7.97;;;;;;;0.85;58.39;100502.34;4405322;32;34485;-83
2022/01/11 00:27:08;;;;;;;17.90;7.62;;;;;;;0.65;58.73;100516.06;4393453;32;33719;-83
2022/01/11 00:29:41;;;;;;;18.48;7.75;;;;;;;0.58;58.99;100514.28;4405050;32;33946;-83
2022/01/11 00:32:14;;;;;;;15.68;7.20;;;;;;;0.68;58.63;100516.09;4398250;32;33392;-83
2022/01/11 00:34:50;;;;;;;15.85;8.05;;;;;;;0.74;58.35;100521.31;4414600;32;33721;-83
2022/01/11 00:37:19;;;;;;;16.37;7.65;;;;;;;0.54;58.88;100529.84;4394185;32;33917;-85
2022/01/11 00:39:50;;;;;;;17.90;8.48;;;;;;;0.63;58.44;100532.50;4393598;32;32345;-85
2022/01/11 00:42:19;;;;;;;17.33;7.60;;;;;;;0.44;58.84;100537.53;4406164;32;33151;-85
2022/01/11 00:44:48;;;;;;;21.85;8.48;;;;;;;0.56;58.89;100539.38;4411246;32;34716;-85
2022/01/11 00:47:15;;;;;;;12.50;6.87;;;;;;;0.53;59.35;100541.97;4393413;32;33655;-85
2022/01/11 00:49:44;;;;;;;16.60;6.75;;;;;;;0.42;59.55;100546.16;4394340;32;31998;-85
2022/01/11 00:52:12;;;;;;;16.23;6.70;;;;;;;0.23;59.71;100540.78;4379674;32;32477;-85
2022/01/11 00:54:39;;;;;;;17.48;7.45;;;;;;;0.49;59.23;100545.37;4392162;32;33260;-85
2022/01/11 00:57:07;;;;;;;16.00;6.97;;;;;;;0.51;59.05;100548.84;4387551;32;33220;-85
2022/01/11 00:59:35;;;;;;;18.25;6.75;;;;;;;0.45;59.25;100546.22;4389428;32;33323;-85
2022/01/11 01:02:02;;;;;;;10.88;6.10;;;;;;;0.61;58.54;100555.00;4392438;32;34544;-83
2022/01/11 01:04:31;;;;;;;12.10;5.75;;;;;;;0.46;58.98;100555.72;4395906;32;31891;-83
2022/01/11 01:06:59;;;;;;;16.50;6.53;;;;;;;0.58;58.51;100555.84;4396592;32;33919;-83
2022/01/11 01:09:35;;;;;;;15.02;6.65;;;;;;;0.51;59.03;100561.84;4398731;32;33764;-83
2022/01/11 01:12:03;;;;;;;15.60;7.07;;;;;;;0.62;58.45;100570.62;4373845;32;32265;-83
2022/01/11 01:14:31;;;;;;;13.65;6.82;;;;;;;0.27;59.12;100567.66;4383946;32;33019;-83
2022/01/11 01:16:59;;;;;;;13.50;6.65;;;;;;;0.58;58.36;100566.25;4377561;32;34260;-83
2022/01/11 01:19:27;;;;;;;15.32;6.60;;;;;;;0.35;59.08;100572.97;4395472;32;33623;-83
2022/01/11 01:21:56;;;;;;;16.58;7.57;;;;;;;0.63;58.38;100572.37;4377330;32;33038;-83
2022/01/11 01:24:23;;;;;;;14.75;8.35;;;;;;;0.15;59.58;100570.16;4395294;32;34064;-83
2022/01/11 01:26:51;;;;;;;9.90;4.93;;;;;;;0.47;58.59;100573.06;4395903;32;32339;-83
2022/01/11 01:29:19;;;;;;;17.42;6.53;;;;;;;0.53;58.66;100583.53;4386306;32;32506;-83
2022/01/11 01:31:46;;;;;;;12.18;5.97;;;;;;;0.53;58.79;100580.94;4397755;32;33953;-83
2022/01/11 01:34:14;;;;;;;13.90;6.32;;;;;;;0.41;59.08;100579.06;4396518;32;33674;-84
2022/01/11 01:36:43;;;;;;;16.77;6.47;;;;;;;0.44;59.30;100584.31;4373040;32;32945;-84
2022/01/11 01:39:10;;;;;;;10.18;5.20;;;;;;;0.58;58.52;100586.19;4397020;32;34321;-84
2022/01/11 01:41:43;;;;;;;11.30;6.00;;;;;;;0.46;59.02;100582.59;4371999;32;32857;-84
2022/01/11 01:44:12;;;;;;;13.40;6.22;;;;;;;0.49;58.80;100580.03;4398195;32;33604;-84
2022/01/11 01:46:42;;;;;;;12.05;4.55;;;;;;;0.45;59.03;100579.97;4391442;32;32679;-84
2022/01/11 01:49:16;;;;;;;18.52;6.75;;;;;;;0.73;58.59;100579.37;4382546;32;32323;-84
2022/01/11 01:51:45;;;;;;;13.32;5.90;;;;;;;1.05;57.34;100586.59;4399845;32;34388;-84
2022/01/11 01:54:14;;;;;;;13.60;5.78;;;;;;;0.29;59.25;100588.50;4416686;32;33523;-84
2022/01/11 01:56:43;;;;;;;10.63;5.05;;;;;;;0.95;57.86;100593.44;4406395;32;32975;-83
2022/01/11 01:59:11;;;;;;;12.35;5.68;;;;;;;0.68;59.03;100588.00;4393460;32;32538;-83
2022/01/11 02:01:45;;;;;;;17.48;6.43;;;;;;;0.81;58.05;100586.34;4417957;32;33687;-84
2022/01/11 02:04:16;;;;;;;13.40;6.45;;;;;;;0.66;59.08;100582.75;4405194;32;33291;-84
2022/01/11 02:06:44;;;;;;;10.73;5.37;;;;;;;1.16;57.80;100587.50;4404874;32;32923;-84
2022/01/11 02:09:12;;;;;;;13.93;5.65;;;;;;;1.07;57.64;100586.59;4405766;32;32499;-84
2022/01/11 02:11:40;;;;;;;13.85;6.75;;;;;;;1.42;56.98;100587.66;4406869;32;32357;-84
2022/01/11 02:14:08;;;;;;;12.05;5.82;;;;;;;1.21;57.76;100588.41;4425195;32;32211;-84
2022/01/11 02:16:36;;;;;;;18.27;7.62;;;;;;;1.67;56.22;100582.63;4419910;32;34032;-84
2022/01/11 02:19:05;;;;;;;13.93;7.75;;;;;;;1.25;57.65;100592.78;4406743;32;34075;-83
2022/01/11 02:21:32;;;;;;;11.82;6.22;;;;;;;1.51;57.32;100590.31;4395185;32;32726;-84
2022/01/11 02:24:00;;;;;;;14.23;6.47;;;;;;;0.95;58.60;100592.53;4421073;32;34927;-84
2022/01/11 02:26:28;;;;;;;12.82;6.68;;;;;;;1.07;58.34;100586.59;4406277;32;32772;-83
2022/01/11 02:28:56;;;;;;;11.10;6.35;;;;;;;1.28;58.16;100590.22;4404116;32;33039;-83
2022/01/11 02:31:24;;;;;;;13.93;6.03;;;;;;;1.23;58.11;100589.28;4406917;32;33908;-83
2022/01/11 02:33:57;;;;;;;17.15;6.07;;;;;;;1.10;57.95;100587.47;4407281;32;33854;-83
2022/01/11 02:36:26;;;;;;;;;;;;;;;1.35;57.19;100587.62;4393287;32;33769;-83
2022/01/11 02:38:56;;;;;;;12.95;6.28;;;;;;;1.60;56.48;100594.72;4407283;32;33433;-83
2022/01/11 02:41:27;;;;;;;15.40;7.10;;;;;;;1.28;57.30;100598.03;4408023;32;34227;-84
2022/01/11 02:43:57;;;;;;;11.88;5.60;;;;;;;1.42;57.14;100602.41;4414253;32;34840;-84
2022/01/11 02:46:26;;;;;;;15.00;5.62;;;;;;;1.31;57.19;100602.34;4404422;32;32567;-84
2022/01/11 02:48:55;;;;;;;14.40;6.72;;;;;;;1.31;57.30;100602.34;4420882;32;32739;-84
2022/01/11 02:51:24;;;;;;;18.20;7.28;;;;;;;1.72;55.90;100607.81;4419237;32;34614;-84
2022/01/11 02:53:54;;;;;;;15.80;6.43;;;;;;;1.46;56.39;100604.19;4407489;32;34824;-84
2022/01/11 02:56:22;;;;;;;18.77;7.00;;;;;;;1.53;56.19;100604.25;4406262;32;33678;-85
2022/01/11 02:58:51;;;;;;;13.70;6.47;;;;;;;1.26;56.70;100598.84;4398276;32;34425;-84
2022/01/11 03:01:21;;;;;;;14.40;6.65;;;;;;;1.47;56.25;100604.22;4419551;32;34023;-84
2022/01/11 03:03:49;;;;;;;17.95;6.97;;;;;;;1.45;55.97;100610.25;4404908;32;33876;-84
2022/01/11 03:06:17;;;;;;;14.35;6.62;;;;;;;1.44;55.99;100613.72;4389086;32;32053;-86
2022/01/11 03:08:46;;;;;;;12.70;5.97;;;;;;;1.41;55.97;100613.69;4393867;32;32747;-86
2022/01/11 03:11:17;;;;;;;15.77;7.10;;;;;;;1.40;56.04;100611.97;4419130;32;33793;-85
2022/01/11 03:13:46;;;;;;;12.45;6.75;;;;;;;1.53;55.27;100619.00;4419926;32;33072;-84
2022/01/11 03:16:16;;;;;;;14.32;6.28;;;;;;;1.68;55.07;100624.28;4395481;32;34133;-84
2022/01/11 03:18:45;;;;;;;14.68;7.45;;;;;;;1.25;56.36;100634.41;4419393;32;32613;-84
2022/01/11 03:21:13;;;;;;;18.65;7.68;;;;;;;1.17;56.38;100636.06;4417325;32;33885;-85
2022/01/11 03:23:41;;;;;;;15.82;7.53;;;;;;;1.19;56.09;100647.37;4417584;32;33603;-85
2022/01/11 03:26:09;;;;;;;13.48;6.35;;;;;;;1.34;55.73;100637.94;4407382;32;34523;-85
2022/01/11 03:28:38;;;;;;;17.90;7.45;;;;;;;1.11;56.15;100637.78;4405751;32;31961;-83
2022/01/11 03:31:05;;;;;;;10.45;6.05;;;;;;;1.09;56.12;100642.94;4410467;32;33937;-84
2022/01/11 03:33:34;;;;;;;15.63;6.78;;;;;;;1.08;56.19;100643.81;4406107;32;32648;-83
2022/01/11 03:36:02;;;;;;;19.00;8.27;;;;;;;0.99;56.32;100644.59;4406898;32;34336;-83
2022/01/11 03:38:31;;;;;;;16.60;7.10;;;;;;;1.00;56.46;100640.28;4402199;32;32098;-84
2022/01/11 03:40:59;;;;;;;15.07;7.60;;;;;;;1.27;55.86;100652.62;4418180;32;33655;-84
2022/01/11 03:43:27;;;;;;;13.30;6.03;;;;;;;1.18;55.89;100644.75;4405800;32;33560;-83
2022/01/11 03:45:57;;;;;;;14.30;7.75;;;;;;;1.13;55.61;100646.44;4418452;32;34158;-84
2022/01/11 03:48:25;;;;;;;17.30;8.93;;;;;;;1.05;55.92;100645.53;4406361;32;34160;-84
2022/01/11 03:50:54;;;;;;;16.27;7.72;;;;;;;1.08;55.70;100641.19;4405465;32;33547;-83
2022/01/11 03:53:32;;;;;;;18.25;7.82;;;;;;;0.89;55.91;100650.56;4406842;32;33856;-83
2022/01/11 03:56:21;;;;;;;13.40;6.55;;;;;;;0.97;55.95;100648.91;4406914;32;33855;-84
2022/01/11 03:58:50;;;;;;;19.45;8.27;;;;;;;0.99;55.95;100660.19;4419114;32;32415;-83
2022/01/11 04:01:19;;;;;;;15.95;8.18;;;;;;;0.97;55.88;100667.13;4406681;32;33761;-84
2022/01/11 04:03:48;;;;;;;18.92;8.45;;;;;;;0.84;56.35;100669.59;4419261;32;33663;-84
2022/01/11 04:06:16;;;;;;;15.65;6.93;;;;;;;0.57;56.76;100678.88;4407479;32;34470;-83
2022/01/11 04:08:45;;;;;;;13.68;8.02;;;;;;;1.01;55.76;100675.84;4405613;32;32464;-83
2022/01/11 04:11:13;;;;;;;14.27;7.22;;;;;;;0.78;55.91;100678.22;4406241;32;33107;-84
2022/01/11 04:13:42;;;;;;;20.90;8.82;;;;;;;0.67;56.66;100672.91;4400990;32;32842;-84
2022/01/11 04:16:10;;;;;;;16.05;8.02;;;;;;;0.69;56.26;100673.78;4405893;32;31798;-85
2022/01/11 04:18:39;;;;;;;14.18;7.07;;;;;;;0.57;56.40;100683.16;4419062;32;34327;-84
2022/01/11 04:21:07;;;;;;;16.30;7.15;;;;;;;0.55;56.55;100683.16;4406489;32;32965;-83
2022/01/11 04:23:35;;;;;;;15.60;7.30;;;;;;;0.63;56.29;100688.44;4406390;32;33826;-84
2022/01/11 04:26:03;;;;;;;15.27;6.90;;;;;;;0.79;55.77;100681.66;4382108;32;34128;-83
2022/01/11 04:28:31;;;;;;;15.70;6.78;;;;;;;0.58;55.73;100685.81;4406601;32;33757;-83
2022/01/11 04:31:00;;;;;;;16.55;7.75;;;;;;;0.19;57.31;100679.28;4394192;32;33335;-83
2022/01/11 04:33:32;;;;;;;17.12;8.40;;;;;;;0.58;56.07;100685.81;4419666;32;33171;-83
2022/01/11 04:36:00;;;;;;;14.52;7.57;;;;;;;0.49;56.26;100685.69;4405304;32;33441;-83
2022/01/11 04:38:30;;;;;;;15.18;7.82;;;;;;;0.36;56.57;100702.84;4406758;32;32905;-84
2022/01/11 04:40:58;;;;;;;15.10;7.25;;;;;;;0.16;57.21;100701.75;4406682;32;32931;-83
2022/01/11 04:43:26;;;;;;;14.73;6.57;;;;;;;0.33;56.76;100709.72;4406164;32;34474;-83
2022/01/11 04:45:55;;;;;;;18.48;8.23;;;;;;;0.06;57.47;100716.34;4388822;32;186029;-85
2022/01/11 04:48:23;;;;;;;19.80;8.57;;;;;;;0.28;56.75;100714.87;4394314;32;33182;-84
2022/01/11 04:50:51;;;;;;;21.05;7.90;;;;;;;0.37;56.50;100722.78;4419187;32;33790;-84
2022/01/11 04:53:19;;;;;;;23.05;9.38;;;;;;;0.59;56.16;100721.31;4413282;32;33353;-84
2022/01/11 04:55:47;;;;;;;21.50;9.52;;;;;;;0.30;57.04;100728.78;4395778;32;32606;-84
2022/01/11 04:58:14;;;;;;;22.23;8.95;;;;;;;0.22;57.16;100736.44;4403820;32;33153;-84
2022/01/11 05:00:42;;;;;;;19.20;8.77;;;;;;;0.08;57.16;100732.78;4406250;32;33856;-84
2022/01/11 05:03:11;;;;;;;20.37;8.00;;;;;;;0.13;56.95;100728.53;4418469;32;34688;-84
2022/01/11 05:05:39;;;;;;;15.88;7.75;;;;;;;-0.20;58.14;100741.03;4406003;32;34482;-84
2022/01/11 05:08:07;;;;;;;23.77;9.13;;;;;;;0.07;57.29;100750.97;4406588;32;34350;-83
2022/01/11 05:10:35;;;;;;;16.73;8.57;;;;;;;-0.06;57.38;100747.31;4414514;32;33841;-83
2022/01/11 05:13:03;;;;;;;16.10;8.23;;;;;;;-0.24;57.70;100752.22;4405619;32;35072;-84
2022/01/11 05:15:32;;;;;;;16.50;7.90;;;;;;;-0.20;57.56;100748.81;4391881;32;34033;-83
2022/01/11 05:18:00;;;;;;;19.15;8.77;;;;;;;-0.39;58.10;100758.06;4404422;32;33107;-83
2022/01/11 05:20:29;;;;;;;18.50;8.43;;;;;;;-0.19;57.90;100758.34;4416452;32;33609;-83
2022/01/11 05:22:57;;;;;;;17.50;7.10;;;;;;;-0.58;58.73;100762.06;4406205;32;34032;-83
2022/01/11 05:25:25;;;;;;;18.35;8.52;;;;;;;-0.52;58.75;100764.78;4404431;32;33487;-83
2022/01/11 05:27:53;;;;;;;17.52;8.32;;;;;;;-0.31;58.15;100761.66;4410316;32;32531;-83
2022/01/11 05:30:22;;;;;;;18.77;7.85;;;;;;;-0.65;58.86;100776.66;4405685;32;33142;-83
2022/01/11 05:32:49;;;;;;;27.60;9.93;;;;;;;-0.64;59.52;100777.53;4390508;32;33104;-83
2022/01/11 05:35:19;;;;;;;22.08;9.43;;;;;;;-0.69;59.68;100780.03;4417108;32;33803;-83
2022/01/11 05:37:48;;;;;;;26.60;10.65;;;;;;;-0.86;60.22;100782.31;4416518;32;33788;-85
2022/01/11 05:40:17;;;;;;;27.65;10.98;;;;;;;-0.60;59.33;100784.53;4392390;32;33191;-85
2022/01/11 05:42:46;;;;;;;25.92;9.48;;;;;;;-0.69;59.74;100794.72;4404867;32;34392;-85
2022/01/11 05:45:14;;;;;;;27.87;11.73;;;;;;;-0.76;59.70;100798.91;4397737;32;33878;-85
2022/01/11 05:47:42;;;;;;;30.83;11.82;;;;;;;-0.53;58.75;100799.31;4400621;32;31771;-86
2022/01/11 05:50:12;;;;;;;22.50;9.52;;;;;;;-0.65;59.41;100804.31;4414952;32;35593;-85
2022/01/11 05:52:40;;;;;;;16.60;8.05;;;;;;;-0.53;58.31;100802.78;4415309;32;32385;-85
2022/01/11 05:55:09;;;;;;;25.12;8.50;;;;;;;-0.74;nan;100811.94;4414238;32;34227;-85
2022/01/11 05:57:37;;;;;;;19.35;8.40;;;;;;;-0.43;58.24;100810.75;4401470;32;33279;-85
2022/01/11 06:00:08;;;;;;;21.42;8.20;;;;;;;-0.41;58.29;100815.12;4402801;32;31513;-85
2022/01/11 06:02:41;;;;;;;17.85;8.35;;;;;;;-0.59;58.22;100807.88;4406413;32;33621;-84
2022/01/11 06:05:11;;;;;;;17.92;8.07;;;;;;;-0.25;57.19;100816.25;4401710;32;33821;-84
2022/01/11 06:07:39;;;;;;;19.00;8.52;;;;;;;-0.69;58.51;100823.25;4388628;32;32726;-84
2022/01/11 06:10:08;;;;;;;22.52;7.87;;;;;;;-0.47;57.95;100817.63;4406463;32;32135;-84
2022/01/11 06:12:36;;;;;;;20.12;7.90;;;;;;;-0.58;58.38;100829.50;4395458;32;34300;-84
2022/01/11 06:15:04;;;;;;;21.52;7.07;;;;;;;-0.32;57.13;100832.56;4417118;32;33409;-85
2022/01/11 06:17:32;;;;;;;21.27;7.97;;;;;;;-0.46;57.34;100849.63;4408685;32;33284;-84
2022/01/11 06:20:05;;;;;;;18.23;7.70;;;;;;;-0.94;58.98;100840.97;4403325;32;33092;-84
2022/01/11 06:22:33;;;;;;;23.33;9.70;;;;;;;-0.97;59.03;100851.25;4404731;32;33420;-84
2022/01/11 06:25:04;;;;;;;24.83;12.40;;;;;;;-0.91;59.00;100858.28;4403335;32;33334;-84
2022/01/11 06:27:33;;;;;;;32.38;13.68;;;;;;;-1.15;59.79;100856.06;4402419;32;32180;-85
2022/01/11 06:30:01;;;;;;;19.73;9.75;;;;;;;-0.85;58.91;100864.47;4403660;32;31254;-85
2022/01/11 06:32:29;;;;;;;30.77;11.82;;;;;;;-1.10;59.50;100865.69;4401526;32;34555;-84
2022/01/11 06:34:59;;;;;;;24.80;10.82;;;;;;;-1.07;59.37;100867.47;4404113;32;34322;-83
2022/01/11 06:37:26;;;;;;;24.83;10.63;;;;;;;-0.99;59.17;100871.09;4401266;32;32157;-84
2022/01/11 06:39:55;;;;;;;27.60;10.20;;;;;;;-1.85;61.67;100887.34;4402696;32;34656;-83
2022/01/11 06:42:23;;;;;;;19.42;8.40;;;;;;;-1.52;60.64;100901.03;4392100;32;32525;-87
2022/01/11 06:44:50;;;;;;;20.27;7.37;;;;;;;-1.59;61.34;100900.03;4391175;32;33043;-87
2022/01/11 06:47:19;;;;;;;17.50;7.55;;;;;;;-1.34;60.79;100897.13;4404493;32;33086;-87
2022/01/11 06:49:46;;;;;;;15.00;7.72;;;;;;;-1.49;61.01;100896.78;4379522;32;32843;-87
2022/01/11 06:52:14;;;;;;;18.33;8.15;;;;;;;-1.42;60.50;100903.88;4391916;32;33424;-87
2022/01/11 06:54:44;;;;;;;15.90;7.05;;;;;;;-1.31;59.44;100906.69;4405039;32;34133;-87
2022/01/11 06:57:11;;;;;;;28.12;14.13;;;;;;;-1.35;60.49;100910.06;4403667;32;32693;-87
2022/01/11 06:59:39;;;;;;;18.65;9.57;;;;;;;-1.60;60.72;100914.69;4404634;32;33235;-87
2022/01/11 07:02:07;;;;;;;21.67;9.30;;;;;;;-1.64;60.95;100917.16;4403677;32;32735;-87
2022/01/11 07:04:37;;;;;;;13.30;6.82;;;;;;;-1.09;59.43;100913.25;4409632;32;33327;-87
2022/01/11 07:07:07;;;;;;;18.45;8.65;;;;;;;-1.52;60.97;100914.84;4392680;32;32206;-87
2022/01/11 07:09:35;;;;;;;15.70;8.10;;;;;;;-1.25;59.89;100921.50;4392193;32;32613;-87
2022/01/11 07:12:04;;;;;;;18.65;7.93;;;;;;;-0.88;58.89;100924.03;4406420;32;33424;-87
2022/01/11 07:14:31;;;;;;;19.98;7.43;;;;;;;-1.05;59.53;100926.25;4406965;32;32694;-85
2022/01/11 07:16:59;;;;;;;17.30;8.15;;;;;;;-0.74;58.89;100920.84;4394183;32;33666;-85
2022/01/11 07:19:29;;;;;;;16.35;7.90;;;;;;;-0.35;58.15;100921.59;4418607;32;33772;-86
2022/01/11 07:21:59;;;;;;;18.98;9.93;;;;;;;-0.40;58.33;100924.97;4395792;32;33734;-86
2022/01/11 07:24:27;;;;;;;20.25;9.45;;;;;;;-0.12;57.32;100928.94;4402106;32;34145;-86
2022/01/11 07:26:55;;;;;;;21.80;9.32;;;;;;;-0.13;57.06;100928.06;4407721;32;32992;-86
2022/01/11 07:29:23;;;;;;;24.25;10.88;;;;;;;0.15;56.47;100932.03;4405668;32;33707;-86
2022/01/11 07:31:52;;;;;;;21.75;10.98;;;;;;;-0.06;57.01;100936.84;4403957;32;32511;-86
2022/01/11 07:34:20;;;;;;;23.70;11.60;;;;;;;0.08;56.71;100942.28;4404726;32;33304;-86
2022/01/11 07:36:48;;;;;;;26.05;12.50;;;;;;;0.26;56.22;100942.59;4401742;32;32306;-86
2022/01/11 07:39:16;;;;;;;43.15;16.50;;;;;;;0.28;56.56;100934.81;4401596;32;34759;-86
2022/01/11 07:41:44;;;;;;;63.55;20.90;;;;;;;0.21;56.39;100939.91;4413553;32;33800;-86
2022/01/11 07:44:12;;;;;;;70.82;25.02;;;;;;;0.39;56.05;100944.53;4412032;32;34849;-86
2022/01/11 07:46:41;;;;;;;24.80;11.40;;;;;;;0.39;55.86;100941.06;4387572;32;33625;-86
2022/01/11 07:49:09;;;;;;;37.65;13.50;;;;;;;0.32;55.81;100947.00;4404871;32;33564;-86
2022/01/11 07:51:37;;;;;;;37.08;14.30;;;;;;;-0.07;56.67;100953.25;4415935;32;33984;-86
2022/01/11 07:54:06;;;;;;;34.15;15.45;;;;;;;0.42;55.86;100943.69;4416628;32;32979;-86
2022/01/11 07:56:34;;;;;;;28.60;12.50;;;;;;;0.42;55.74;100949.75;4406492;32;33055;-86
2022/01/11 07:59:02;;;;;;;8.98;4.87;;;;;;;0.64;54.83;100945.78;4403270;32;33378;-86
2022/01/11 08:01:32;;;;;;;8.05;4.10;;;;;;;0.91;50.30;100950.50;4405515;32;32461;-86
2022/01/11 08:04:00;;;;;;;11.07;5.07;;;;;;;0.97;49.17;100944.50;4405646;32;32426;-86
2022/01/11 08:06:29;;;;;;;3.87;1.70;;;;;;;0.99;49.76;100943.66;4418262;32;34003;-86
2022/01/11 08:08:57;;;;;;;10.63;4.10;;;;;;;1.24;47.70;100947.47;4405811;32;33115;-86
2022/01/11 08:11:26;;;;;;;7.22;3.45;;;;;;;1.45;47.59;100959.00;4408244;32;32860;-86
2022/01/11 08:13:54;;;;;;;9.68;3.87;;;;;;;1.62;47.04;100949.66;4419322;32;33742;-86
2022/01/11 08:16:21;;;;;;;8.10;3.85;;;;;;;1.87;46.89;100957.72;4390774;32;32906;-85
2022/01/11 08:18:49;;;;;;;9.18;3.58;;;;;;;1.90;45.83;100962.94;4405714;32;34010;-85
2022/01/11 08:21:17;;;;;;;10.52;3.87;;;;;;;1.73;46.25;100958.44;4401156;32;32983;-86
2022/01/11 08:23:45;;;;;;;7.50;3.97;;;;;;;1.95;45.84;100959.56;4401777;32;32404;-86
2022/01/11 08:26:13;;;;;;;8.85;3.67;;;;;;;1.94;45.73;100964.72;4404252;32;33391;-86
2022/01/11 08:28:43;;;;;;;9.05;3.65;;;;;;;2.16;45.57;100961.47;4394001;32;34805;-85
2022/01/11 08:31:12;;;;;;;10.73;3.67;;;;;;;2.62;44.61;100967.06;4421081;32;32613;-85
2022/01/11 08:33:41;;;;;;;7.80;4.30;;;;;;;2.39;44.73;100959.06;4418234;32;33831;-86
2022/01/11 08:36:09;;;;;;;11.23;4.68;;;;;;;2.51;44.95;100963.50;4419576;32;32992;-85
2022/01/11 08:38:37;;;;;;;6.75;3.78;;;;;;;2.66;44.59;100963.63;4406849;32;33322;-85
2022/01/11 08:41:07;;;;;;;9.13;3.92;;;;;;;2.50;43.75;100966.97;4419163;32;33943;-86
2022/01/11 08:43:35;;;;;;;8.27;4.57;;;;;;;2.54;44.01;100968.75;4417852;32;33788;-85
2022/01/11 08:46:03;;;;;;;9.85;4.32;;;;;;;3.08;44.01;100983.00;4417173;32;31952;-85
2022/01/11 08:48:32;;;;;;;7.35;3.90;;;;;;;3.14;43.18;100977.84;4391317;32;34067;-86
2022/01/11 08:51:00;;;;;;;10.02;4.37;;;;;;;3.11;43.32;100982.16;4393884;32;32497;-86
2022/01/11 08:53:28;;;;;;;10.90;4.87;;;;;;;2.70;43.69;100983.63;4406171;32;32769;-86
2022/01/11 08:55:57;;;;;;;9.43;4.12;;;;;;;2.70;43.77;100985.38;4406001;32;34033;-86
2022/01/11 08:58:25;;;;;;;8.32;3.87;;;;;;;3.10;42.34;100978.69;4405901;32;33219;-86
2022/01/11 09:00:53;;;;;;;10.43;4.05;;;;;;;3.49;41.24;100967.53;4406421;32;33581;-85
2022/01/11 09:03:23;;;;;;;9.13;3.33;;;;;;;3.20;42.40;100974.38;4406168;32;33187;-86
2022/01/11 09:05:52;;;;;;;9.93;5.03;;;;;;;3.03;41.62;100984.72;4406103;32;32325;-85
2022/01/11 09:08:20;;;;;;;6.12;2.70;;;;;;;2.99;41.90;100988.16;4418449;32;33361;-85
2022/01/11 09:10:50;;;;;;;9.43;4.95;;;;;;;3.23;41.11;100982.22;4393149;32;32829;-86
2022/01/11 09:13:20;;;;;;;10.80;3.92;;;;;;;3.14;42.38;100980.44;4393432;32;32737;-86
2022/01/11 09:15:48;;;;;;;10.77;4.70;;;;;;;3.63;40.87;100978.06;4422667;32;32245;-86
2022/01/11 09:18:16;;;;;;;7.47;4.00;;;;;;;3.28;41.33;100978.78;4393516;32;32435;-86
2022/01/11 09:20:44;;;;;;;10.55;3.58;;;;;;;3.36;40.79;100972.72;4395202;32;33701;-86
2022/01/11 09:23:12;;;;;;;7.32;3.55;;;;;;;3.17;41.11;100983.06;4383228;32;33956;-86
2022/01/11 09:25:40;;;;;;;9.23;4.15;;;;;;;3.28;40.88;100976.19;4405924;32;32114;-86
2022/01/11 09:28:09;;;;;;;8.70;4.65;;;;;;;3.48;41.55;100980.59;4405038;32;33793;-86
2022/01/11 09:30:37;;;;;;;9.40;4.03;;;;;;;4.04;40.10;100975.56;4404965;32;34137;-86
2022/01/11 09:33:06;;;;;;;7.72;4.10;;;;;;;4.18;40.15;100983.41;4390886;32;34586;-86
2022/01/11 09:35:34;;;;;;;9.02;4.82;;;;;;;3.88;39.62;100980.72;4402632;32;35804;-87
2022/01/11 09:38:04;;;;;;;8.18;4.22;;;;;;;4.32;39.12;100968.63;4420340;32;33940;-87
2022/01/11 09:40:32;;;;;;;10.48;4.68;;;;;;;4.50;38.70;100974.69;4416931;32;34728;-87
2022/01/11 09:43:01;;;;;;;9.90;4.28;;;;;;;4.77;38.67;100976.44;4392367;32;32677;-86
2022/01/11 09:45:28;;;;;;;7.22;3.85;;;;;;;4.39;38.77;100971.22;4417471;32;33352;-86
2022/01/11 09:48:01;;;;;;;9.50;3.80;;;;;;;4.61;39.63;100967.75;4416879;32;32789;-87
2022/01/11 09:50:30;;;;;;;8.77;3.47;;;;;;;5.05;37.75;100970.28;4393453;32;34112;-86
2022/01/11 09:52:59;;;;;;;9.07;4.60;;;;;;;5.01;37.99;100967.66;4418420;32;34424;-87
2022/01/11 09:55:29;;;;;;;9.60;3.15;;;;;;;5.08;37.00;100964.12;4405167;32;33075;-87
2022/01/11 09:57:58;;;;;;;9.68;3.92;;;;;;;5.06;37.25;100960.66;4392990;32;32865;-87
2022/01/11 10:00:32;;;;;;;10.30;4.00;;;;;;;4.86;38.13;100958.97;4404694;32;33806;-86
2022/01/11 10:03:04;;;;;;;9.20;4.15;;;;;;;5.16;37.01;100965.00;4405116;32;32391;-86
2022/01/11 10:05:36;;;;;;;6.97;3.47;;;;;;;5.13;37.27;100957.19;4409474;32;33691;-87
2022/01/11 10:08:25;;;;;;;6.90;4.20;;;;;;;4.95;37.53;100949.37;4417508;32;33858;-86
2022/01/11 10:10:57;;;;;;;9.07;4.37;;;;;;;4.85;37.87;100952.00;4407989;32;34629;-87
2022/01/11 10:13:38;;;;;;;7.40;3.78;;;;;;;4.94;38.49;100958.06;4390486;32;33582;-87
2022/01/11 10:16:27;;;;;;;6.30;3.25;;;;;;;4.76;38.25;100957.25;4415889;32;33439;-87
2022/01/11 10:18:57;;;;;;;7.37;3.83;;;;;;;5.22;37.41;100962.37;4406364;32;33062;-87
2022/01/11 10:21:42;;;;;;;7.70;3.33;;;;;;;5.41;37.74;100968.41;4388093;32;33395;-87
2022/01/11 10:24:39;;;;;;;7.87;2.97;;;;;;;5.64;36.72;100960.44;4409709;32;34107;-87
2022/01/11 10:27:16;;;;;;;8.60;3.75;;;;;;;5.62;36.84;100956.97;4417909;32;33887;-86
2022/01/11 10:29:51;;;;;;;6.35;3.53;;;;;;;5.59;36.77;100962.22;4417804;32;33600;-86
2022/01/11 10:32:32;;;;;;;8.38;3.65;;;;;;;5.52;36.35;100966.63;4418044;32;34053;-87
2022/01/11 10:35:05;;;;;;;9.15;3.87;;;;;;;5.69;36.10;100961.28;4397919;32;33261;-86
2022/01/11 10:37:38;;;;;;;7.90;3.55;;;;;;;5.46;36.98;100961.41;4404272;32;32973;-87
2022/01/11 10:40:13;;;;;;;6.85;3.35;;;;;;;5.61;36.40;100955.22;4406589;32;33247;-89
2022/01/11 10:43:04;;;;;;;5.25;2.78;;;;;;;5.56;36.32;100951.78;4382320;32;32310;-86
2022/01/11 10:45:35;;;;;;;3.62;2.60;;;;;;;5.47;36.64;100959.66;4419842;32;32691;-86
2022/01/11 10:48:06;;;;;;;;;;;;;;;5.48;37.00;100961.41;4419137;32;33075;-86
2022/01/11 10:50:39;;;;;;;5.57;2.47;;;;;;;5.28;37.01;100967.59;4407231;32;33990;-86
2022/01/11 10:53:26;;;;;;;8.68;3.45;;;;;;;5.20;37.16;100964.12;4419157;32;33523;-86
2022/01/11 10:56:01;;;;;;;7.78;3.80;;;;;;;5.04;37.17;100960.69;4406886;32;32678;-86
2022/01/11 10:59:07;;;;;;;8.35;3.45;;;;;;;4.85;38.33;100961.59;4405419;32;32632;-86
2022/01/11 11:01:35;;;;;;;10.87;3.20;;;;;;;5.24;37.60;100955.37;4406539;32;32656;-86
2022/01/11 11:04:04;;;;;;;6.75;3.70;;;;;;;5.06;37.75;100971.12;4419288;32;32708;-86
2022/01/11 11:06:32;;;;;;;10.65;3.78;;;;;;;5.32;37.20;100968.47;4381406;32;33003;-87
2022/01/11 11:09:06;;;;;;;7.65;3.42;;;;;;;5.58;37.03;100960.47;4409306;32;33764;-86
2022/01/11 11:11:34;;;;;;;8.07;3.87;;;;;;;5.63;37.04;100959.56;4415918;32;33790;-86
2022/01/11 11:14:06;;;;;;;4.50;2.63;;;;;;;5.74;36.41;100962.13;4419404;32;33907;-86
2022/01/11 11:16:37;;;;;;;7.40;2.95;;;;;;;5.44;36.61;100963.16;4408159;32;34396;-86
2022/01/11 11:19:06;;;;;;;8.43;3.10;;;;;;;5.60;37.04;100950.84;4418084;32;32595;-86
2022/01/11 11:21:37;;;;;;;8.43;4.05;;;;;;;5.36;37.43;100960.59;4394462;32;33323;-86
2022/01/11 11:24:10;;;;;;;8.73;3.90;;;;;;;5.09;38.08;100963.28;4419767;32;34192;-86
2022/01/11 11:26:42;;;;;;;;;;;;;;;5.23;37.72;100964.12;4406615;32;34210;-86
2022/01/11 11:29:10;;;;;;;8.43;3.60;;;;;;;5.53;37.41;100962.25;4415114;32;34183;-86
2022/01/11 11:31:58;;;;;;;7.82;3.80;;;;;;;5.42;37.11;100958.81;4404521;32;33891;-86
2022/01/11 11:34:30;;;;;;;7.60;3.90;;;;;;;5.65;37.41;100956.97;4416121;32;33189;-86
2022/01/11 11:37:03;;;;;;;6.87;2.83;;;;;;;5.80;37.02;100967.34;4419259;32;33523;-86
2022/01/11 11:39:32;;;;;;;8.15;3.90;;;;;;;5.63;37.11;100953.47;4412221;32;33676;-86